sensor_id;sensor_type;location;lat;lon;timestamp;P1;durP1;ratioP1;P2;durP2;ratioP2
11255;SDS011;5685;52.384;13.420;2023-04-25T06:38:37;76.80;;;38.70;;
11255;SDS011;5685;52.384;13.420;2023-04-25T06:41:40;76.60;;;38.67;;
11255;SDS011;5685;52.384;13.420;2023-04-25T06:44:42;76.73;;;38.93;;
11255;SDS011;5685;52.384;13.420;2023-04-25T06:47:45;76.93;;;39.00;;
11255;SDS011;5685;52.384;13.420;2023-04-25T06:50:47;77.50;;;39.20;;
11255;SDS011;5685;52.384;13.420;2023-04-25T06:53:51;77.10;;;39.10;;
11255;SDS011;5685;52.384;13.420;2023-04-25T06:56:53;76.80;;;39.10;;
11255;SDS011;5685;52.384;13.420;2023-04-25T06:59:56;77.17;;;39.10;;
11255;SDS011;5685;52.384;13.420;2023-04-25T07:02:59;77.50;;;39.20;;
11255;SDS011;5685;52.384;13.420;2023-04-25T07:06:02;77.87;;;39.40;;
11255;SDS011;5685;52.384;13.420;2023-04-25T07:09:06;77.70;;;39.30;;
11255;SDS011;5685;52.384;13.420;2023-04-25T07:12:09;77.50;;;39.20;;
11255;SDS011;5685;52.384;13.420;2023-04-25T07:15:12;78.20;;;39.60;;
11255;SDS011;5685;52.384;13.420;2023-04-25T07:18:14;78.00;;;39.40;;
11255;SDS011;5685;52.384;13.420;2023-04-25T07:21:17;78.10;;;39.57;;
11255;SDS011;5685;52.384;13.420;2023-04-25T07:24:21;78.17;;;39.47;;
11255;SDS011;5685;52.384;13.420;2023-04-25T07:27:24;78.30;;;39.60;;
11255;SDS011;5685;52.384;13.420;2023-04-25T07:30:26;78.10;;;39.57;;
11255;SDS011;5685;52.384;13.420;2023-04-25T07:33:29;78.13;;;39.47;;
11255;SDS011;5685;52.384;13.420;2023-04-25T07:36:32;78.27;;;39.63;;
11255;SDS011;5685;52.384;13.420;2023-04-25T07:39:36;78.13;;;39.43;;
11255;SDS011;5685;52.384;13.420;2023-04-25T07:42:38;78.30;;;39.70;;
11255;SDS011;5685;52.384;13.420;2023-04-25T07:45:41;77.60;;;39.30;;
11255;SDS011;5685;52.384;13.420;2023-04-25T07:48:44;78.37;;;39.57;;
11255;SDS011;5685;52.384;13.420;2023-04-25T07:51:46;77.73;;;39.50;;
11255;SDS011;5685;52.384;13.420;2023-04-25T07:54:50;78.30;;;39.90;;
11255;SDS011;5685;52.384;13.420;2023-04-25T07:57:53;77.47;;;39.57;;
11255;SDS011;5685;52.384;13.420;2023-04-25T08:00:56;77.90;;;39.60;;
11255;SDS011;5685;52.384;13.420;2023-04-25T08:03:58;77.33;;;39.40;;
11255;SDS011;5685;52.384;13.420;2023-04-25T08:07:01;77.87;;;39.63;;
11255;SDS011;5685;52.384;13.420;2023-04-25T08:10:06;78.13;;;39.67;;
11255;SDS011;5685;52.384;13.420;2023-04-25T08:13:09;77.80;;;39.37;;
11255;SDS011;5685;52.384;13.420;2023-04-25T08:16:11;77.67;;;39.37;;
11255;SDS011;5685;52.384;13.420;2023-04-25T08:19:14;78.30;;;39.77;;
11255;SDS011;5685;52.384;13.420;2023-04-25T08:22:17;77.37;;;39.27;;
11255;SDS011;5685;52.384;13.420;2023-04-25T08:25:21;78.20;;;39.70;;
11255;SDS011;5685;52.384;13.420;2023-04-25T08:28:24;77.80;;;39.50;;
11255;SDS011;5685;52.384;13.420;2023-04-25T08:31:26;77.73;;;39.43;;
11255;SDS011;5685;52.384;13.420;2023-04-25T08:34:29;78.10;;;39.57;;
11255;SDS011;5685;52.384;13.420;2023-04-25T08:37:31;77.80;;;39.40;;
11255;SDS011;5685;52.384;13.420;2023-04-25T08:40:37;78.17;;;39.50;;
11255;SDS011;5685;52.384;13.420;2023-04-25T08:43:41;78.50;;;39.73;;
11255;SDS011;5685;52.384;13.420;2023-04-25T08:46:45;78.20;;;39.50;;
11255;SDS011;5685;52.384;13.420;2023-04-25T08:49:50;78.60;;;39.80;;
11255;SDS011;5685;52.384;13.420;2023-04-25T08:52:55;78.60;;;39.77;;
11255;SDS011;5685;52.384;13.420;2023-04-25T08:56:03;78.40;;;39.60;;
11255;SDS011;5685;52.384;13.420;2023-04-25T08:59:06;78.47;;;39.63;;
11255;SDS011;5685;52.384;13.420;2023-04-25T09:02:09;78.23;;;39.63;;
11255;SDS011;5685;52.384;13.420;2023-04-25T09:05:14;78.53;;;39.70;;
11255;SDS011;5685;52.384;13.420;2023-04-25T09:08:17;78.10;;;39.53;;
11255;SDS011;5685;52.384;13.420;2023-04-25T09:11:21;78.70;;;39.83;;
11255;SDS011;5685;52.384;13.420;2023-04-25T09:14:24;78.83;;;39.80;;
11255;SDS011;5685;52.384;13.420;2023-04-25T09:17:28;78.63;;;39.87;;
11255;SDS011;5685;52.384;13.420;2023-04-25T09:20:30;78.20;;;39.50;;
11255;SDS011;5685;52.384;13.420;2023-04-25T09:23:38;77.80;;;39.40;;
11255;SDS011;5685;52.384;13.420;2023-04-25T09:26:43;78.13;;;39.70;;
11255;SDS011;5685;52.384;13.420;2023-04-25T09:29:45;78.03;;;39.70;;
11255;SDS011;5685;52.384;13.420;2023-04-25T09:32:48;78.00;;;39.80;;
11255;SDS011;5685;52.384;13.420;2023-04-25T09:35:50;78.33;;;39.90;;
11255;SDS011;5685;52.384;13.420;2023-04-25T09:38:55;77.80;;;39.50;;
11255;SDS011;5685;52.384;13.420;2023-04-25T09:42:00;78.93;;;39.90;;
11255;SDS011;5685;52.384;13.420;2023-04-25T09:45:04;78.67;;;39.73;;
11255;SDS011;5685;52.384;13.420;2023-04-25T09:48:07;78.03;;;39.43;;
11255;SDS011;5685;52.384;13.420;2023-04-25T09:51:10;78.10;;;39.40;;
11255;SDS011;5685;52.384;13.420;2023-04-25T09:54:14;78.00;;;39.50;;
11255;SDS011;5685;52.384;13.420;2023-04-25T09:57:19;78.83;;;39.87;;
11255;SDS011;5685;52.384;13.420;2023-04-25T10:00:22;78.27;;;39.77;;
11255;SDS011;5685;52.384;13.420;2023-04-25T10:03:25;78.10;;;39.53;;
11255;SDS011;5685;52.384;13.420;2023-04-25T10:06:28;78.33;;;39.73;;
11255;SDS011;5685;52.384;13.420;2023-04-25T10:09:31;78.53;;;39.70;;
11255;SDS011;5685;52.384;13.420;2023-04-25T10:12:36;78.40;;;39.83;;
11255;SDS011;5685;52.384;13.420;2023-04-25T10:15:40;78.43;;;39.87;;
11255;SDS011;5685;52.384;13.420;2023-04-25T10:18:43;77.57;;;39.40;;
11255;SDS011;5685;52.384;13.420;2023-04-25T10:21:46;78.30;;;39.83;;
11255;SDS011;5685;52.384;13.420;2023-04-25T10:24:51;78.00;;;39.70;;
11255;SDS011;5685;52.384;13.420;2023-04-25T10:27:55;78.07;;;39.60;;
11255;SDS011;5685;52.384;13.420;2023-04-25T10:30:58;78.80;;;39.90;;
11255;SDS011;5685;52.384;13.420;2023-04-25T10:34:02;78.33;;;39.77;;
11255;SDS011;5685;52.384;13.420;2023-04-25T10:37:05;78.17;;;39.50;;
11255;SDS011;5685;52.384;13.420;2023-04-25T10:40:11;78.53;;;39.80;;
11255;SDS011;5685;52.384;13.420;2023-04-25T10:43:35;77.93;;;39.57;;
11255;SDS011;5685;52.384;13.420;2023-04-25T10:46:38;78.00;;;39.70;;
11255;SDS011;5685;52.384;13.420;2023-04-25T10:49:41;78.30;;;39.80;;
11255;SDS011;5685;52.384;13.420;2023-04-25T10:52:44;78.30;;;39.80;;
11255;SDS011;5685;52.384;13.420;2023-04-25T10:55:50;78.70;;;40.00;;
11255;SDS011;5685;52.384;13.420;2023-04-25T10:59:04;78.17;;;39.90;;
11255;SDS011;5685;52.384;13.420;2023-04-25T11:02:11;77.17;;;39.17;;
11255;SDS011;5685;52.384;13.420;2023-04-25T11:05:20;78.57;;;40.13;;
11255;SDS011;5685;52.384;13.420;2023-04-25T11:08:26;78.50;;;39.97;;
11255;SDS011;5685;52.384;13.420;2023-04-25T11:11:38;78.77;;;40.00;;
11255;SDS011;5685;52.384;13.420;2023-04-25T11:14:43;78.37;;;39.73;;
11255;SDS011;5685;52.384;13.420;2023-04-25T11:17:45;78.43;;;39.77;;
11255;SDS011;5685;52.384;13.420;2023-04-25T11:20:48;78.47;;;39.80;;
11255;SDS011;5685;52.384;13.420;2023-04-25T11:23:51;78.33;;;39.80;;
11255;SDS011;5685;52.384;13.420;2023-04-25T11:26:54;78.20;;;39.77;;
11255;SDS011;5685;52.384;13.420;2023-04-25T11:29:58;78.73;;;39.90;;
11255;SDS011;5685;52.384;13.420;2023-04-25T11:33:01;78.87;;;40.10;;
11255;SDS011;5685;52.384;13.420;2023-04-25T11:36:04;79.10;;;40.10;;
11255;SDS011;5685;52.384;13.420;2023-04-25T11:39:07;78.50;;;39.80;;
11255;SDS011;5685;52.384;13.420;2023-04-25T11:42:10;78.13;;;39.80;;
11255;SDS011;5685;52.384;13.420;2023-04-25T11:45:14;78.23;;;39.73;;
11255;SDS011;5685;52.384;13.420;2023-04-25T11:48:18;78.57;;;39.87;;
11255;SDS011;5685;52.384;13.420;2023-04-25T11:51:22;78.77;;;39.83;;
11255;SDS011;5685;52.384;13.420;2023-04-25T11:54:25;78.60;;;39.80;;
11255;SDS011;5685;52.384;13.420;2023-04-25T11:57:27;78.07;;;39.60;;
11255;SDS011;5685;52.384;13.420;2023-04-25T12:00:34;78.97;;;40.00;;
11255;SDS011;5685;52.384;13.420;2023-04-25T12:03:45;78.67;;;39.90;;
11255;SDS011;5685;52.384;13.420;2023-04-25T12:06:48;78.47;;;39.83;;
11255;SDS011;5685;52.384;13.420;2023-04-25T12:09:51;78.17;;;39.83;;
11255;SDS011;5685;52.384;13.420;2023-04-25T12:12:54;78.00;;;39.60;;
11255;SDS011;5685;52.384;13.420;2023-04-25T12:15:58;78.30;;;39.83;;
11255;SDS011;5685;52.384;13.420;2023-04-25T12:19:02;77.97;;;39.67;;
11255;SDS011;5685;52.384;13.420;2023-04-25T12:22:18;78.10;;;39.77;;
11255;SDS011;5685;52.384;13.420;2023-04-25T12:28:44;77.97;;;39.63;;
11255;SDS011;5685;52.384;13.420;2023-04-25T12:31:50;78.10;;;39.83;;
11255;SDS011;5685;52.384;13.420;2023-04-25T12:34:53;77.87;;;39.70;;
11255;SDS011;5685;52.384;13.420;2023-04-25T12:37:56;77.93;;;39.73;;
11255;SDS011;5685;52.384;13.420;2023-04-25T12:40:59;78.63;;;40.00;;
11255;SDS011;5685;52.384;13.420;2023-04-25T12:44:01;78.07;;;39.70;;
11255;SDS011;5685;52.384;13.420;2023-04-25T12:47:05;77.37;;;39.40;;
11255;SDS011;5685;52.384;13.420;2023-04-25T12:50:08;78.00;;;39.73;;
11255;SDS011;5685;52.384;13.420;2023-04-25T12:53:11;77.97;;;39.70;;
11255;SDS011;5685;52.384;13.420;2023-04-25T12:56:14;78.10;;;39.70;;
11255;SDS011;5685;52.384;13.420;2023-04-25T12:59:17;78.50;;;39.90;;
11255;SDS011;5685;52.384;13.420;2023-04-25T13:02:21;78.77;;;40.07;;
11255;SDS011;5685;52.384;13.420;2023-04-25T13:05:24;78.23;;;39.90;;
11255;SDS011;5685;52.384;13.420;2023-04-25T13:08:27;78.03;;;39.83;;
11255;SDS011;5685;52.384;13.420;2023-04-25T13:11:30;77.93;;;39.80;;
11255;SDS011;5685;52.384;13.420;2023-04-25T13:14:32;78.53;;;40.10;;
11255;SDS011;5685;52.384;13.420;2023-04-25T13:17:36;78.03;;;39.83;;
11255;SDS011;5685;52.384;13.420;2023-04-25T13:20:39;77.57;;;39.70;;
11255;SDS011;5685;52.384;13.420;2023-04-25T13:23:42;78.00;;;39.77;;
11255;SDS011;5685;52.384;13.420;2023-04-25T13:26:46;77.50;;;39.70;;
11255;SDS011;5685;52.384;13.420;2023-04-25T13:29:49;77.53;;;39.67;;
11255;SDS011;5685;52.384;13.420;2023-04-25T13:32:53;77.87;;;39.80;;
11255;SDS011;5685;52.384;13.420;2023-04-25T13:35:57;77.40;;;39.57;;
11255;SDS011;5685;52.384;13.420;2023-04-25T13:38:59;77.97;;;39.73;;
11255;SDS011;5685;52.384;13.420;2023-04-25T13:42:04;77.70;;;39.77;;
11255;SDS011;5685;52.384;13.420;2023-04-25T13:45:07;78.07;;;39.87;;
11255;SDS011;5685;52.384;13.420;2023-04-25T13:48:11;78.57;;;40.10;;
11255;SDS011;5685;52.384;13.420;2023-04-25T13:51:14;77.77;;;39.73;;
11255;SDS011;5685;52.384;13.420;2023-04-25T13:54:18;77.77;;;39.70;;
11255;SDS011;5685;52.384;13.420;2023-04-25T13:57:20;77.67;;;39.77;;
11255;SDS011;5685;52.384;13.420;2023-04-25T14:00:23;77.73;;;39.83;;
11255;SDS011;5685;52.384;13.420;2023-04-25T14:03:27;77.60;;;39.67;;
11255;SDS011;5685;52.384;13.420;2023-04-25T14:06:30;77.20;;;39.60;;
11255;SDS011;5685;52.384;13.420;2023-04-25T14:09:33;77.10;;;39.87;;
11255;SDS011;5685;52.384;13.420;2023-04-25T14:12:36;76.40;;;39.70;;
11255;SDS011;5685;52.384;13.420;2023-04-25T14:15:39;76.57;;;39.80;;
11255;SDS011;5685;52.384;13.420;2023-04-25T14:18:42;76.40;;;39.60;;
11255;SDS011;5685;52.384;13.420;2023-04-25T14:21:45;76.50;;;39.70;;
11255;SDS011;5685;52.384;13.420;2023-04-25T14:24:47;77.57;;;40.10;;
11255;SDS011;5685;52.384;13.420;2023-04-25T14:27:50;76.90;;;39.90;;
11255;SDS011;5685;52.384;13.420;2023-04-25T14:30:52;77.07;;;39.90;;
11255;SDS011;5685;52.384;13.420;2023-04-25T14:33:56;76.90;;;39.90;;
11255;SDS011;5685;52.384;13.420;2023-04-25T14:36:59;76.80;;;39.80;;
11255;SDS011;5685;52.384;13.420;2023-04-25T14:40:02;76.60;;;39.70;;
11255;SDS011;5685;52.384;13.420;2023-04-25T14:43:05;77.03;;;39.87;;
11255;SDS011;5685;52.384;13.420;2023-04-25T14:46:08;77.57;;;40.13;;
11255;SDS011;5685;52.384;13.420;2023-04-25T14:49:12;77.30;;;40.00;;
11255;SDS011;5685;52.384;13.420;2023-04-25T14:52:15;77.40;;;40.10;;
11255;SDS011;5685;52.384;13.420;2023-04-25T14:55:18;77.77;;;40.20;;
11255;SDS011;5685;52.384;13.420;2023-04-25T14:58:20;77.43;;;40.00;;
11255;SDS011;5685;52.384;13.420;2023-04-25T15:01:23;77.90;;;40.10;;
11255;SDS011;5685;52.384;13.420;2023-04-25T15:04:27;77.87;;;40.00;;
11255;SDS011;5685;52.384;13.420;2023-04-25T15:07:30;78.47;;;40.20;;
11255;SDS011;5685;52.384;13.420;2023-04-25T15:10:34;77.87;;;39.93;;
11255;SDS011;5685;52.384;13.420;2023-04-25T15:13:36;78.00;;;39.90;;
11255;SDS011;5685;52.384;13.420;2023-04-25T15:16:40;77.77;;;39.97;;
11255;SDS011;5685;52.384;13.420;2023-04-25T15:19:44;77.97;;;40.00;;
11255;SDS011;5685;52.384;13.420;2023-04-25T15:22:46;77.90;;;40.03;;
11255;SDS011;5685;52.384;13.420;2023-04-25T15:25:50;78.40;;;40.17;;
11255;SDS011;5685;52.384;13.420;2023-04-25T15:28:53;77.93;;;40.13;;
11255;SDS011;5685;52.384;13.420;2023-04-25T15:31:56;78.03;;;39.90;;
11255;SDS011;5685;52.384;13.420;2023-04-25T15:35:02;77.90;;;40.17;;
11255;SDS011;5685;52.384;13.420;2023-04-25T15:38:05;78.03;;;40.30;;
11255;SDS011;5685;52.384;13.420;2023-04-25T15:41:08;78.07;;;40.17;;
11255;SDS011;5685;52.384;13.420;2023-04-25T15:44:11;77.83;;;40.10;;
11255;SDS011;5685;52.384;13.420;2023-04-25T15:47:13;77.97;;;40.07;;
11255;SDS011;5685;52.384;13.420;2023-04-25T15:50:17;78.13;;;40.30;;
11255;SDS011;5685;52.384;13.420;2023-04-25T15:53:20;77.67;;;40.10;;
11255;SDS011;5685;52.384;13.420;2023-04-25T15:56:22;77.70;;;40.00;;
11255;SDS011;5685;52.384;13.420;2023-04-25T15:59:25;78.07;;;40.10;;
11255;SDS011;5685;52.384;13.420;2023-04-25T16:02:28;77.50;;;39.90;;
11255;SDS011;5685;52.384;13.420;2023-04-25T16:05:32;77.13;;;39.80;;
11255;SDS011;5685;52.384;13.420;2023-04-25T16:08:34;77.57;;;39.90;;
11255;SDS011;5685;52.384;13.420;2023-04-25T16:11:37;77.33;;;39.80;;
11255;SDS011;5685;52.384;13.420;2023-04-25T16:14:40;76.93;;;39.80;;
11255;SDS011;5685;52.384;13.420;2023-04-25T16:17:42;77.20;;;39.80;;
11255;SDS011;5685;52.384;13.420;2023-04-25T16:20:46;77.40;;;40.10;;
11255;SDS011;5685;52.384;13.420;2023-04-25T16:23:49;77.70;;;40.27;;
11255;SDS011;5685;52.384;13.420;2023-04-25T16:26:51;77.30;;;39.87;;
11255;SDS011;5685;52.384;13.420;2023-04-25T16:29:54;77.63;;;40.10;;
11255;SDS011;5685;52.384;13.420;2023-04-25T16:32:56;77.60;;;40.10;;
11255;SDS011;5685;52.384;13.420;2023-04-25T16:36:00;76.77;;;39.73;;
11255;SDS011;5685;52.384;13.420;2023-04-25T16:39:03;77.47;;;40.03;;
11255;SDS011;5685;52.384;13.420;2023-04-25T16:42:07;76.90;;;39.90;;
11255;SDS011;5685;52.384;13.420;2023-04-25T16:45:11;76.77;;;39.90;;
11255;SDS011;5685;52.384;13.420;2023-04-25T16:48:16;76.50;;;39.80;;
11255;SDS011;5685;52.384;13.420;2023-04-25T16:51:21;77.50;;;40.20;;
11255;SDS011;5685;52.384;13.420;2023-04-25T16:54:23;77.23;;;39.90;;
11255;SDS011;5685;52.384;13.420;2023-04-25T16:57:26;76.90;;;39.63;;
11255;SDS011;5685;52.384;13.420;2023-04-25T17:00:29;77.13;;;39.90;;
11255;SDS011;5685;52.384;13.420;2023-04-25T17:03:31;77.87;;;40.17;;
11255;SDS011;5685;52.384;13.420;2023-04-25T17:06:35;77.63;;;40.00;;
11255;SDS011;5685;52.384;13.420;2023-04-25T17:09:38;77.40;;;40.00;;
11255;SDS011;5685;52.384;13.420;2023-04-25T17:12:41;77.57;;;40.17;;
11255;SDS011;5685;52.384;13.420;2023-04-25T17:15:43;76.90;;;39.90;;
11255;SDS011;5685;52.384;13.420;2023-04-25T17:18:46;76.87;;;40.00;;
11255;SDS011;5685;52.384;13.420;2023-04-25T17:21:50;77.37;;;40.10;;
11255;SDS011;5685;52.384;13.420;2023-04-25T17:24:53;77.57;;;40.10;;
11255;SDS011;5685;52.384;13.420;2023-04-25T17:27:56;77.40;;;39.80;;
11255;SDS011;5685;52.384;13.420;2023-04-25T17:30:58;77.60;;;39.90;;
11255;SDS011;5685;52.384;13.420;2023-04-25T17:34:01;78.03;;;40.07;;
11255;SDS011;5685;52.384;13.420;2023-04-25T17:37:05;78.13;;;40.10;;
11255;SDS011;5685;52.384;13.420;2023-04-25T17:40:14;78.13;;;40.00;;
11255;SDS011;5685;52.384;13.420;2023-04-25T17:43:16;77.80;;;39.83;;
11255;SDS011;5685;52.384;13.420;2023-04-25T17:46:19;77.70;;;39.87;;
11255;SDS011;5685;52.384;13.420;2023-04-25T17:49:21;77.57;;;39.70;;
11255;SDS011;5685;52.384;13.420;2023-04-25T17:52:25;78.10;;;40.00;;
11255;SDS011;5685;52.384;13.420;2023-04-25T17:55:28;78.07;;;40.00;;
11255;SDS011;5685;52.384;13.420;2023-04-25T17:58:31;78.07;;;39.87;;
11255;SDS011;5685;52.384;13.420;2023-04-25T18:01:33;77.97;;;39.80;;
11255;SDS011;5685;52.384;13.420;2023-04-25T18:04:36;77.23;;;39.60;;
11255;SDS011;5685;52.384;13.420;2023-04-25T18:07:40;77.37;;;39.60;;
11255;SDS011;5685;52.384;13.420;2023-04-25T18:10:43;77.70;;;39.80;;
11255;SDS011;5685;52.384;13.420;2023-04-25T18:13:46;78.00;;;40.10;;
11255;SDS011;5685;52.384;13.420;2023-04-25T18:16:49;78.13;;;40.07;;
11255;SDS011;5685;52.384;13.420;2023-04-25T18:19:52;78.00;;;39.90;;
11255;SDS011;5685;52.384;13.420;2023-04-25T18:22:57;78.30;;;39.97;;
11255;SDS011;5685;52.384;13.420;2023-04-25T18:26:00;77.67;;;39.70;;
11255;SDS011;5685;52.384;13.420;2023-04-25T18:29:03;77.87;;;39.77;;
11255;SDS011;5685;52.384;13.420;2023-04-25T18:32:06;78.30;;;40.10;;
11255;SDS011;5685;52.384;13.420;2023-04-25T18:35:09;77.87;;;39.70;;
11255;SDS011;5685;52.384;13.420;2023-04-25T18:38:13;78.37;;;40.10;;
11255;SDS011;5685;52.384;13.420;2023-04-25T18:41:16;78.30;;;40.00;;
11255;SDS011;5685;52.384;13.420;2023-04-25T18:44:19;77.80;;;39.77;;
11255;SDS011;5685;52.384;13.420;2023-04-25T18:47:21;78.07;;;40.00;;
11255;SDS011;5685;52.384;13.420;2023-04-25T18:50:24;77.50;;;39.63;;
11255;SDS011;5685;52.384;13.420;2023-04-25T18:53:28;78.07;;;39.93;;
11255;SDS011;5685;52.384;13.420;2023-04-25T18:56:31;77.90;;;39.80;;
11255;SDS011;5685;52.384;13.420;2023-04-25T18:59:33;77.47;;;39.70;;
11255;SDS011;5685;52.384;13.420;2023-04-25T19:02:36;77.67;;;39.70;;
11255;SDS011;5685;52.384;13.420;2023-04-25T19:05:39;77.40;;;39.80;;
11255;SDS011;5685;52.384;13.420;2023-04-25T19:08:43;77.67;;;40.07;;
11255;SDS011;5685;52.384;13.420;2023-04-25T19:11:45;77.10;;;39.83;;
11255;SDS011;5685;52.384;13.420;2023-04-25T19:14:48;77.00;;;39.70;;
11255;SDS011;5685;52.384;13.420;2023-04-25T19:17:51;77.17;;;39.80;;
11255;SDS011;5685;52.384;13.420;2023-04-25T19:20:54;77.83;;;40.07;;
11255;SDS011;5685;52.384;13.420;2023-04-25T19:23:58;77.13;;;39.77;;
11255;SDS011;5685;52.384;13.420;2023-04-25T19:27:02;77.20;;;39.60;;
11255;SDS011;5685;52.384;13.420;2023-04-25T19:30:05;77.20;;;39.70;;
11255;SDS011;5685;52.384;13.420;2023-04-25T19:33:08;77.57;;;39.97;;
11255;SDS011;5685;52.384;13.420;2023-04-25T19:36:11;77.27;;;39.80;;
11255;SDS011;5685;52.384;13.420;2023-04-25T19:39:15;78.20;;;40.57;;
11255;SDS011;5685;52.384;13.420;2023-04-25T19:42:17;77.40;;;39.90;;
11255;SDS011;5685;52.384;13.420;2023-04-25T19:45:20;77.83;;;40.17;;
11255;SDS011;5685;52.384;13.420;2023-04-25T19:48:23;77.20;;;39.60;;
11255;SDS011;5685;52.384;13.420;2023-04-25T19:51:25;77.30;;;39.70;;
11255;SDS011;5685;52.384;13.420;2023-04-25T19:54:31;77.20;;;39.67;;
11255;SDS011;5685;52.384;13.420;2023-04-25T19:57:33;77.40;;;39.83;;
11255;SDS011;5685;52.384;13.420;2023-04-25T20:00:36;77.53;;;39.80;;
11255;SDS011;5685;52.384;13.420;2023-04-25T20:03:39;77.20;;;39.70;;
11255;SDS011;5685;52.384;13.420;2023-04-25T20:06:42;77.57;;;39.80;;
11255;SDS011;5685;52.384;13.420;2023-04-25T20:09:46;77.70;;;39.80;;
11255;SDS011;5685;52.384;13.420;2023-04-25T20:12:49;77.80;;;39.80;;
11255;SDS011;5685;52.384;13.420;2023-04-25T20:15:51;77.70;;;39.73;;
11255;SDS011;5685;52.384;13.420;2023-04-25T20:18:54;77.70;;;39.60;;
11255;SDS011;5685;52.384;13.420;2023-04-25T20:21:56;78.23;;;39.80;;
11255;SDS011;5685;52.384;13.420;2023-04-25T20:25:00;78.80;;;40.20;;
11255;SDS011;5685;52.384;13.420;2023-04-25T20:28:04;78.10;;;39.80;;
11255;SDS011;5685;52.384;13.420;2023-04-25T20:31:07;78.03;;;39.60;;
11255;SDS011;5685;52.384;13.420;2023-04-25T20:34:10;77.93;;;39.67;;
11255;SDS011;5685;52.384;13.420;2023-04-25T20:37:13;78.20;;;39.80;;
11255;SDS011;5685;52.384;13.420;2023-04-25T20:40:17;78.30;;;39.70;;
11255;SDS011;5685;52.384;13.420;2023-04-25T20:43:19;78.40;;;39.80;;
11255;SDS011;5685;52.384;13.420;2023-04-25T20:46:22;78.77;;;39.90;;
11255;SDS011;5685;52.384;13.420;2023-04-25T20:49:25;78.77;;;39.93;;
11255;SDS011;5685;52.384;13.420;2023-04-25T20:52:27;78.90;;;40.10;;
11255;SDS011;5685;52.384;13.420;2023-04-25T20:55:32;77.70;;;39.47;;
11255;SDS011;5685;52.384;13.420;2023-04-25T20:58:35;78.30;;;39.90;;
11255;SDS011;5685;52.384;13.420;2023-04-25T21:01:38;77.87;;;39.50;;
11255;SDS011;5685;52.384;13.420;2023-04-25T21:04:41;77.67;;;39.63;;
11255;SDS011;5685;52.384;13.420;2023-04-25T21:07:44;78.10;;;39.80;;
11255;SDS011;5685;52.384;13.420;2023-04-25T21:10:48;78.43;;;39.90;;
11255;SDS011;5685;52.384;13.420;2023-04-25T21:13:52;78.03;;;39.70;;
11255;SDS011;5685;52.384;13.420;2023-04-25T21:16:55;78.40;;;39.90;;
11255;SDS011;5685;52.384;13.420;2023-04-25T21:19:57;78.17;;;39.80;;
11255;SDS011;5685;52.384;13.420;2023-04-25T21:23:00;77.43;;;39.40;;
11255;SDS011;5685;52.384;13.420;2023-04-25T21:26:04;78.40;;;39.93;;
11255;SDS011;5685;52.384;13.420;2023-04-25T21:29:06;77.63;;;39.43;;
11255;SDS011;5685;52.384;13.420;2023-04-25T21:32:09;78.40;;;39.80;;
11255;SDS011;5685;52.384;13.420;2023-04-25T21:35:16;77.83;;;39.40;;
11255;SDS011;5685;52.384;13.420;2023-04-25T21:38:19;77.67;;;39.37;;
11255;SDS011;5685;52.384;13.420;2023-04-25T21:41:23;78.17;;;39.63;;
11255;SDS011;5685;52.384;13.420;2023-04-25T21:44:26;78.40;;;39.70;;
11255;SDS011;5685;52.384;13.420;2023-04-25T21:47:29;78.33;;;39.60;;
11255;SDS011;5685;52.384;13.420;2023-04-25T21:50:32;78.07;;;39.57;;
11255;SDS011;5685;52.384;13.420;2023-04-25T21:53:35;77.87;;;39.53;;
11255;SDS011;5685;52.384;13.420;2023-04-25T21:56:39;78.30;;;39.60;;
11255;SDS011;5685;52.384;13.420;2023-04-25T21:59:41;77.90;;;39.50;;
11255;SDS011;5685;52.384;13.420;2023-04-25T22:02:44;78.23;;;39.60;;
11255;SDS011;5685;52.384;13.420;2023-04-25T22:05:47;77.60;;;39.37;;
11255;SDS011;5685;52.384;13.420;2023-04-25T22:08:49;77.70;;;39.37;;
11255;SDS011;5685;52.384;13.420;2023-04-25T22:11:53;78.13;;;39.60;;
11255;SDS011;5685;52.384;13.420;2023-04-25T22:14:57;77.87;;;39.40;;
11255;SDS011;5685;52.384;13.420;2023-04-25T22:18:00;77.73;;;39.30;;
11255;SDS011;5685;52.384;13.420;2023-04-25T22:21:03;78.03;;;39.60;;
11255;SDS011;5685;52.384;13.420;2023-04-25T22:24:06;78.03;;;39.53;;
11255;SDS011;5685;52.384;13.420;2023-04-25T22:27:10;78.37;;;39.73;;
11255;SDS011;5685;52.384;13.420;2023-04-25T22:30:13;78.07;;;39.63;;
11255;SDS011;5685;52.384;13.420;2023-04-25T22:33:15;78.07;;;39.57;;
11255;SDS011;5685;52.384;13.420;2023-04-25T22:36:18;78.27;;;39.70;;
11255;SDS011;5685;52.384;13.420;2023-04-25T22:39:23;77.77;;;39.40;;
11255;SDS011;5685;52.384;13.420;2023-04-25T22:42:26;78.00;;;39.47;;
11255;SDS011;5685;52.384;13.420;2023-04-25T22:45:29;77.37;;;39.33;;
11255;SDS011;5685;52.384;13.420;2023-04-25T22:48:32;78.17;;;39.60;;
11255;SDS011;5685;52.384;13.420;2023-04-25T22:51:34;77.80;;;39.37;;
11255;SDS011;5685;52.384;13.420;2023-04-25T22:54:37;78.50;;;39.70;;
11255;SDS011;5685;52.384;13.420;2023-04-25T22:57:41;78.33;;;39.70;;
11255;SDS011;5685;52.384;13.420;2023-04-25T23:00:44;78.33;;;39.63;;
11255;SDS011;5685;52.384;13.420;2023-04-25T23:03:47;77.73;;;39.47;;
11255;SDS011;5685;52.384;13.420;2023-04-25T23:06:50;78.43;;;39.80;;
11255;SDS011;5685;52.384;13.420;2023-04-25T23:09:52;78.23;;;39.67;;
11255;SDS011;5685;52.384;13.420;2023-04-25T23:12:56;78.10;;;39.60;;
11255;SDS011;5685;52.384;13.420;2023-04-25T23:16:03;78.33;;;39.50;;
11255;SDS011;5685;52.384;13.420;2023-04-25T23:19:07;78.30;;;39.60;;
11255;SDS011;5685;52.384;13.420;2023-04-25T23:22:10;77.90;;;39.47;;
11255;SDS011;5685;52.384;13.420;2023-04-25T23:25:13;77.80;;;39.40;;
11255;SDS011;5685;52.384;13.420;2023-04-25T23:28:17;77.97;;;39.47;;
11255;SDS011;5685;52.384;13.420;2023-04-25T23:31:19;78.53;;;39.70;;
11255;SDS011;5685;52.384;13.420;2023-04-25T23:34:22;78.20;;;39.70;;
11255;SDS011;5685;52.384;13.420;2023-04-25T23:37:25;78.30;;;39.70;;
11255;SDS011;5685;52.384;13.420;2023-04-25T23:40:29;78.43;;;39.70;;
11255;SDS011;5685;52.384;13.420;2023-04-25T23:43:33;77.83;;;39.43;;
11255;SDS011;5685;52.384;13.420;2023-04-25T23:46:35;78.50;;;39.63;;
11255;SDS011;5685;52.384;13.420;2023-04-25T23:49:38;78.37;;;39.57;;
11255;SDS011;5685;52.384;13.420;2023-04-25T23:52:41;78.30;;;39.63;;
11255;SDS011;5685;52.384;13.420;2023-04-25T23:55:43;78.40;;;39.80;;
11255;SDS011;5685;52.384;13.420;2023-04-25T23:58:47;78.43;;;39.60;;
